Verescagino, Russia
Current Conditions -  °F | °C
As of 4:00 AM on Thursday 27 Nov 2014 (Local Time) from USPP Reporting Station
Few Clouds Few Clouds  
Wind Chill: 12°   Ceiling: Unl
Heat Index: 12°   Visibility: 6mi
Dew Point:   Wind: 2mph
Humidity: 79%   Direction: 10°N
Pressure: 30.36"   Gusts: NA
Location:  58.08°N, 54.68°E
Report Text: USPP 262300Z 01001MPS 9999 FEW033 M11/M14 Q1028 03290145 NOSIGRMK QFE760/1014
Loading
Personal Weather Stations






























Interactive Weather Map New forecast layout! Learn more

10-Day Weather Forecast

Advertisements
Track Severe Weather on mobile